New Harmony, Utah
Current Conditions -  °F | °C
As of 11:53 PM on Saturday 25 Oct 2014 (Local Time) from KCDC Reporting Station
Clear Clear  
Wind Chill: 62°   Ceiling: Unl
Heat Index: 62°   Visibility: 10mi
Dew Point: 40°   Wind: 22mph
Humidity: 44%   Direction: 200°SSW
Pressure: 30.07"   Gusts: 36mph
Location:  37.48°N, 113.31°W
Report Text: KCDC 260553Z AUTO 20019G31KT 10SM CLR 17/04 A3007 RMK AO2 PK WND 17032/0457 SLP115 T01670044 10194 20161 55003 TSNO
Loading
Personal Weather Stations






























Interactive Weather Map
Tropical Storm Tracking
New forecast layout! Learn more

10-Day Weather Forecast

Advertisements
Track Severe Weather on mobile